sensor_id;sensor_type;location;lat;lon;timestamp;pressure;altitude;pressure_sealevel;temperature;humidity
47750;BME280;49810;48.160;10.812;2022-11-15T00:02:39;95162.63;;;3.08;92.56
47750;BME280;49810;48.160;10.812;2022-11-15T00:05:27;95167.25;;;3.19;92.80
47750;BME280;49810;48.160;10.812;2022-11-15T00:08:15;95174.47;;;3.17;92.83
47750;BME280;49810;48.160;10.812;2022-11-15T00:11:03;95166.25;;;3.13;92.82
47750;BME280;49810;48.160;10.812;2022-11-15T00:13:49;95170.28;;;3.16;92.53
47750;BME280;49810;48.160;10.812;2022-11-15T00:16:36;95169.84;;;3.12;92.40
47750;BME280;49810;48.160;10.812;2022-11-15T00:19:23;95166.25;;;3.00;92.34
47750;BME280;49810;48.160;10.812;2022-11-15T00:22:10;95168.25;;;3.11;92.50
47750;BME280;49810;48.160;10.812;2022-11-15T00:24:58;95168.66;;;3.02;92.39
47750;BME280;49810;48.160;10.812;2022-11-15T00:27:44;95152.16;;;2.82;92.42
47750;BME280;49810;48.160;10.812;2022-11-15T00:30:31;95152.34;;;2.74;92.54
47750;BME280;49810;48.160;10.812;2022-11-15T00:33:18;95147.34;;;2.72;92.89
47750;BME280;49810;48.160;10.812;2022-11-15T00:36:06;95146.94;;;2.75;93.03
47750;BME280;49810;48.160;10.812;2022-11-15T00:38:54;95149.38;;;2.90;92.96
47750;BME280;49810;48.160;10.812;2022-11-15T00:41:42;95139.50;;;2.92;92.82
47750;BME280;49810;48.160;10.812;2022-11-15T00:44:29;95129.50;;;2.89;93.01
47750;BME280;49810;48.160;10.812;2022-11-15T00:47:16;95120.84;;;2.88;93.27
47750;BME280;49810;48.160;10.812;2022-11-15T00:50:03;95129.28;;;2.97;93.36
47750;BME280;49810;48.160;10.812;2022-11-15T00:52:50;95142.13;;;2.85;93.31
47750;BME280;49810;48.160;10.812;2022-11-15T00:55:37;95137.91;;;2.71;92.89
47750;BME280;49810;48.160;10.812;2022-11-15T00:58:25;95151.56;;;2.99;92.89
47750;BME280;49810;48.160;10.812;2022-11-15T01:01:13;95144.75;;;3.11;92.11
47750;BME280;49810;48.160;10.812;2022-11-15T01:04:00;95142.94;;;2.86;92.20
47750;BME280;49810;48.160;10.812;2022-11-15T01:06:47;95130.50;;;2.75;92.69
47750;BME280;49810;48.160;10.812;2022-11-15T01:09:34;95132.66;;;2.58;92.82
47750;BME280;49810;48.160;10.812;2022-11-15T01:12:21;95129.81;;;2.47;93.11
47750;BME280;49810;48.160;10.812;2022-11-15T01:15:09;95127.81;;;2.36;93.25
47750;BME280;49810;48.160;10.812;2022-11-15T01:17:56;95139.28;;;2.41;93.46
47750;BME280;49810;48.160;10.812;2022-11-15T01:20:43;95127.63;;;2.37;93.52
47750;BME280;49810;48.160;10.812;2022-11-15T01:23:30;95121.59;;;2.37;93.81
47750;BME280;49810;48.160;10.812;2022-11-15T01:26:17;95116.78;;;2.34;93.90
47750;BME280;49810;48.160;10.812;2022-11-15T01:29:04;95121.38;;;2.38;93.74
47750;BME280;49810;48.160;10.812;2022-11-15T01:31:52;95122.63;;;2.49;93.70
47750;BME280;49810;48.160;10.812;2022-11-15T01:34:39;95105.97;;;2.50;93.62
47750;BME280;49810;48.160;10.812;2022-11-15T01:37:26;95114.16;;;2.47;93.70
47750;BME280;49810;48.160;10.812;2022-11-15T01:40:13;95114.56;;;2.37;93.90
47750;BME280;49810;48.160;10.812;2022-11-15T01:43:17;95105.31;;;2.22;93.65
47750;BME280;49810;48.160;10.812;2022-11-15T01:46:18;95107.28;;;2.07;93.91
47750;BME280;49810;48.160;10.812;2022-11-15T01:49:13;95106.09;;;2.09;93.95
47750;BME280;49810;48.160;10.812;2022-11-15T01:52:02;95103.00;;;1.93;93.95
47750;BME280;49810;48.160;10.812;2022-11-15T01:54:53;95098.13;;;1.77;93.84
47750;BME280;49810;48.160;10.812;2022-11-15T01:57:42;95100.94;;;1.75;93.81
47750;BME280;49810;48.160;10.812;2022-11-15T02:00:31;95094.94;;;1.75;94.08
47750;BME280;49810;48.160;10.812;2022-11-15T02:03:19;95092.97;;;1.83;94.24
47750;BME280;49810;48.160;10.812;2022-11-15T02:06:09;95093.53;;;1.79;94.41
47750;BME280;49810;48.160;10.812;2022-11-15T02:08:56;95090.75;;;1.87;94.27
47750;BME280;49810;48.160;10.812;2022-11-15T02:11:44;95087.59;;;2.11;94.36
47750;BME280;49810;48.160;10.812;2022-11-15T02:14:32;95091.69;;;2.46;93.18
47750;BME280;49810;48.160;10.812;2022-11-15T02:17:37;95092.13;;;2.82;92.49
47750;BME280;49810;48.160;10.812;2022-11-15T02:20:47;95089.72;;;2.93;91.60
47750;BME280;49810;48.160;10.812;2022-11-15T02:24:04;95080.88;;;2.88;91.53
47750;BME280;49810;48.160;10.812;2022-11-15T02:30:37;95062.72;;;2.02;92.67
47750;BME280;49810;48.160;10.812;2022-11-15T02:33:35;95061.09;;;1.88;93.07
47750;BME280;49810;48.160;10.812;2022-11-15T02:36:33;95068.69;;;1.83;93.43
47750;BME280;49810;48.160;10.812;2022-11-15T02:39:27;95059.56;;;2.13;93.74
47750;BME280;49810;48.160;10.812;2022-11-15T02:42:19;95055.78;;;2.35;93.67
47750;BME280;49810;48.160;10.812;2022-11-15T02:45:27;95050.34;;;2.17;93.38
47750;BME280;49810;48.160;10.812;2022-11-15T02:48:17;95047.53;;;2.12;93.65
47750;BME280;49810;48.160;10.812;2022-11-15T02:51:05;95053.94;;;2.22;93.63
47750;BME280;49810;48.160;10.812;2022-11-15T02:53:52;95057.56;;;2.21;93.57
47750;BME280;49810;48.160;10.812;2022-11-15T02:56:39;95051.75;;;2.78;92.58
47750;BME280;49810;48.160;10.812;2022-11-15T02:59:47;95042.91;;;2.92;91.54
47750;BME280;49810;48.160;10.812;2022-11-15T03:02:58;95037.72;;;2.53;91.38
47750;BME280;49810;48.160;10.812;2022-11-15T03:05:58;95041.69;;;2.16;92.04
47750;BME280;49810;48.160;10.812;2022-11-15T03:08:53;95038.25;;;1.96;92.55
47750;BME280;49810;48.160;10.812;2022-11-15T03:11:48;95042.09;;;2.26;93.43
47750;BME280;49810;48.160;10.812;2022-11-15T03:14:40;95032.28;;;2.22;92.71
47750;BME280;49810;48.160;10.812;2022-11-15T03:17:34;95033.91;;;2.42;92.61
47750;BME280;49810;48.160;10.812;2022-11-15T03:20:23;95032.72;;;2.64;91.52
47750;BME280;49810;48.160;10.812;2022-11-15T03:23:13;95026.47;;;2.72;90.75
47750;BME280;49810;48.160;10.812;2022-11-15T03:26:01;95023.69;;;2.73;90.62
47750;BME280;49810;48.160;10.812;2022-11-15T03:28:50;95023.09;;;2.45;90.54
47750;BME280;49810;48.160;10.812;2022-11-15T03:31:42;95020.44;;;2.06;91.47
47750;BME280;49810;48.160;10.812;2022-11-15T03:34:39;95021.38;;;1.79;92.13
47750;BME280;49810;48.160;10.812;2022-11-15T03:37:32;95000.22;;;1.48;92.48
47750;BME280;49810;48.160;10.812;2022-11-15T03:40:25;95002.59;;;1.37;92.92
47750;BME280;49810;48.160;10.812;2022-11-15T03:43:21;95021.00;;;1.35;92.95
47750;BME280;49810;48.160;10.812;2022-11-15T03:46:13;95008.56;;;1.24;93.41
47750;BME280;49810;48.160;10.812;2022-11-15T03:49:07;95014.16;;;1.28;93.46
47750;BME280;49810;48.160;10.812;2022-11-15T03:51:56;95011.38;;;1.29;93.36
47750;BME280;49810;48.160;10.812;2022-11-15T03:54:48;95010.53;;;1.22;93.66
47750;BME280;49810;48.160;10.812;2022-11-15T03:57:37;95012.72;;;1.19;93.47
47750;BME280;49810;48.160;10.812;2022-11-15T04:00:24;95004.53;;;1.22;93.52
47750;BME280;49810;48.160;10.812;2022-11-15T04:03:11;95008.38;;;1.26;93.64
47750;BME280;49810;48.160;10.812;2022-11-15T04:05:58;95012.34;;;1.22;93.74
47750;BME280;49810;48.160;10.812;2022-11-15T04:08:45;95014.00;;;1.36;93.85
47750;BME280;49810;48.160;10.812;2022-11-15T04:11:31;95006.00;;;1.37;93.77
47750;BME280;49810;48.160;10.812;2022-11-15T04:14:19;95001.34;;;1.26;93.68
47750;BME280;49810;48.160;10.812;2022-11-15T04:17:06;94999.53;;;1.20;93.67
47750;BME280;49810;48.160;10.812;2022-11-15T04:19:52;94988.06;;;1.15;93.87
47750;BME280;49810;48.160;10.812;2022-11-15T04:22:58;94990.75;;;1.28;93.77
47750;BME280;49810;48.160;10.812;2022-11-15T04:26:04;94996.59;;;1.36;93.77
47750;BME280;49810;48.160;10.812;2022-11-15T04:28:52;94987.78;;;1.37;93.62
47750;BME280;49810;48.160;10.812;2022-11-15T04:32:04;94989.94;;;1.34;93.52
47750;BME280;49810;48.160;10.812;2022-11-15T04:34:51;94977.00;;;1.53;93.49
47750;BME280;49810;48.160;10.812;2022-11-15T04:37:38;94979.84;;;1.65;93.64
47750;BME280;49810;48.160;10.812;2022-11-15T04:40:31;94965.59;;;1.61;93.19
47750;BME280;49810;48.160;10.812;2022-11-15T04:43:18;94968.41;;;1.53;93.56
47750;BME280;49810;48.160;10.812;2022-11-15T04:46:04;94963.34;;;1.38;93.45
47750;BME280;49810;48.160;10.812;2022-11-15T04:48:53;94974.75;;;1.37;93.41
47750;BME280;49810;48.160;10.812;2022-11-15T04:51:44;94966.13;;;1.30;93.75
47750;BME280;49810;48.160;10.812;2022-11-15T04:54:30;94966.31;;;1.29;93.62
47750;BME280;49810;48.160;10.812;2022-11-15T04:57:17;94967.06;;;1.16;93.84
47750;BME280;49810;48.160;10.812;2022-11-15T05:00:07;94966.09;;;1.24;93.80
47750;BME280;49810;48.160;10.812;2022-11-15T05:02:54;94969.50;;;1.24;93.74
47750;BME280;49810;48.160;10.812;2022-11-15T05:06:00;94961.53;;;1.32;93.95
47750;BME280;49810;48.160;10.812;2022-11-15T05:08:47;94951.09;;;1.26;93.79
47750;BME280;49810;48.160;10.812;2022-11-15T05:11:34;94953.22;;;1.16;93.81
47750;BME280;49810;48.160;10.812;2022-11-15T05:14:20;94945.03;;;1.19;93.80
47750;BME280;49810;48.160;10.812;2022-11-15T05:17:07;94946.66;;;1.26;93.80
47750;BME280;49810;48.160;10.812;2022-11-15T05:19:54;94948.91;;;1.36;93.35
47750;BME280;49810;48.160;10.812;2022-11-15T05:22:42;94945.44;;;1.22;93.35
47750;BME280;49810;48.160;10.812;2022-11-15T05:25:29;94948.84;;;1.16;93.33
47750;BME280;49810;48.160;10.812;2022-11-15T05:28:16;94930.16;;;1.00;93.64
47750;BME280;49810;48.160;10.812;2022-11-15T05:31:04;94935.78;;;1.10;93.93
47750;BME280;49810;48.160;10.812;2022-11-15T05:33:51;94933.22;;;1.16;93.63
47750;BME280;49810;48.160;10.812;2022-11-15T05:36:41;94930.38;;;1.05;93.74
47750;BME280;49810;48.160;10.812;2022-11-15T05:39:30;94917.94;;;0.94;93.80
47750;BME280;49810;48.160;10.812;2022-11-15T05:42:17;94923.66;;;0.83;93.73
47750;BME280;49810;48.160;10.812;2022-11-15T05:45:06;94914.03;;;0.77;93.94
47750;BME280;49810;48.160;10.812;2022-11-15T05:47:56;94927.88;;;0.84;93.80
47750;BME280;49810;48.160;10.812;2022-11-15T05:50:46;94921.75;;;0.98;94.03
47750;BME280;49810;48.160;10.812;2022-11-15T05:53:35;94920.88;;;0.84;93.50
47750;BME280;49810;48.160;10.812;2022-11-15T05:56:24;94934.94;;;0.90;94.08
47750;BME280;49810;48.160;10.812;2022-11-15T05:59:12;94928.94;;;0.96;94.31
47750;BME280;49810;48.160;10.812;2022-11-15T06:01:58;94930.44;;;1.24;93.45
47750;BME280;49810;48.160;10.812;2022-11-15T06:04:45;94944.38;;;1.64;92.53
47750;BME280;49810;48.160;10.812;2022-11-15T06:07:32;94931.47;;;1.23;92.52
47750;BME280;49810;48.160;10.812;2022-11-15T06:10:19;94915.34;;;0.94;92.41
47750;BME280;49810;48.160;10.812;2022-11-15T06:13:07;94930.06;;;0.80;92.82
47750;BME280;49810;48.160;10.812;2022-11-15T06:15:55;94941.34;;;0.94;93.08
47750;BME280;49810;48.160;10.812;2022-11-15T06:18:42;94932.56;;;1.01;92.89
47750;BME280;49810;48.160;10.812;2022-11-15T06:21:29;94924.84;;;0.80;92.91
47750;BME280;49810;48.160;10.812;2022-11-15T06:24:16;94927.56;;;0.66;93.18
47750;BME280;49810;48.160;10.812;2022-11-15T06:27:03;94929.94;;;0.61;92.99
47750;BME280;49810;48.160;10.812;2022-11-15T06:29:51;94922.78;;;0.63;93.32
47750;BME280;49810;48.160;10.812;2022-11-15T06:32:37;94928.16;;;0.61;93.40
47750;BME280;49810;48.160;10.812;2022-11-15T06:35:24;94921.81;;;0.70;93.30
47750;BME280;49810;48.160;10.812;2022-11-15T06:38:11;94929.63;;;0.70;93.32
47750;BME280;49810;48.160;10.812;2022-11-15T06:41:01;94938.38;;;0.63;93.29
47750;BME280;49810;48.160;10.812;2022-11-15T06:43:49;94932.78;;;0.59;93.42
47750;BME280;49810;48.160;10.812;2022-11-15T06:46:37;94935.16;;;0.61;93.38
47750;BME280;49810;48.160;10.812;2022-11-15T06:49:23;94936.38;;;0.65;93.34
47750;BME280;49810;48.160;10.812;2022-11-15T06:52:10;94939.22;;;0.70;93.48
47750;BME280;49810;48.160;10.812;2022-11-15T06:54:57;94935.03;;;0.75;93.34
47750;BME280;49810;48.160;10.812;2022-11-15T06:57:47;94936.16;;;0.94;93.35
47750;BME280;49810;48.160;10.812;2022-11-15T07:00:35;94937.78;;;1.01;93.18
47750;BME280;49810;48.160;10.812;2022-11-15T07:03:24;94933.38;;;1.08;93.36
47750;BME280;49810;48.160;10.812;2022-11-15T07:06:10;94930.63;;;1.16;93.05
47750;BME280;49810;48.160;10.812;2022-11-15T07:08:57;94930.84;;;1.28;93.08
47750;BME280;49810;48.160;10.812;2022-11-15T07:11:44;94932.88;;;1.32;92.64
47750;BME280;49810;48.160;10.812;2022-11-15T07:14:31;94924.69;;;1.42;92.52
47750;BME280;49810;48.160;10.812;2022-11-15T07:17:17;94931.34;;;1.57;92.79
47750;BME280;49810;48.160;10.812;2022-11-15T07:20:06;94919.53;;;1.74;92.96
47750;BME280;49810;48.160;10.812;2022-11-15T07:22:59;94923.97;;;1.87;92.93
47750;BME280;49810;48.160;10.812;2022-11-15T07:25:47;94917.56;;;2.02;93.01
47750;BME280;49810;48.160;10.812;2022-11-15T07:28:34;94904.72;;;2.14;92.57
47750;BME280;49810;48.160;10.812;2022-11-15T07:31:22;94908.13;;;2.34;92.95
47750;BME280;49810;48.160;10.812;2022-11-15T07:34:12;94906.47;;;2.52;92.93
47750;BME280;49810;48.160;10.812;2022-11-15T07:37:00;94919.88;;;2.69;92.33
47750;BME280;49810;48.160;10.812;2022-11-15T07:39:46;94923.06;;;2.90;91.76
47750;BME280;49810;48.160;10.812;2022-11-15T07:42:33;94931.84;;;3.02;91.57
47750;BME280;49810;48.160;10.812;2022-11-15T07:45:40;94917.81;;;3.41;88.93
47750;BME280;49810;48.160;10.812;2022-11-15T07:48:27;94917.47;;;3.31;87.97
47750;BME280;49810;48.160;10.812;2022-11-15T07:51:29;94917.06;;;3.34;89.83
47750;BME280;49810;48.160;10.812;2022-11-15T07:54:17;94910.78;;;3.41;89.71
47750;BME280;49810;48.160;10.812;2022-11-15T07:57:04;94895.44;;;3.51;89.93
47750;BME280;49810;48.160;10.812;2022-11-15T07:59:52;94887.47;;;3.71;90.80
47750;BME280;49810;48.160;10.812;2022-11-15T08:02:39;94879.56;;;3.84;89.98
47750;BME280;49810;48.160;10.812;2022-11-15T08:05:26;94875.06;;;3.91;88.44
47750;BME280;49810;48.160;10.812;2022-11-15T08:08:13;94877.06;;;3.95;88.05
47750;BME280;49810;48.160;10.812;2022-11-15T08:11:01;94875.97;;;4.27;88.45
47750;BME280;49810;48.160;10.812;2022-11-15T08:13:48;94877.66;;;4.40;87.77
47750;BME280;49810;48.160;10.812;2022-11-15T08:16:35;94863.44;;;4.54;88.05
47750;BME280;49810;48.160;10.812;2022-11-15T08:19:22;94868.31;;;4.68;87.94
47750;BME280;49810;48.160;10.812;2022-11-15T08:22:09;94864.09;;;4.67;85.14
47750;BME280;49810;48.160;10.812;2022-11-15T08:24:56;94860.53;;;4.80;86.09
47750;BME280;49810;48.160;10.812;2022-11-15T08:27:44;94864.31;;;5.02;86.03
47750;BME280;49810;48.160;10.812;2022-11-15T08:30:34;94864.91;;;5.33;86.17
47750;BME280;49810;48.160;10.812;2022-11-15T08:33:22;94863.41;;;5.26;83.29
47750;BME280;49810;48.160;10.812;2022-11-15T08:36:12;94856.81;;;5.64;84.20
47750;BME280;49810;48.160;10.812;2022-11-15T08:38:59;94858.66;;;5.75;83.25
47750;BME280;49810;48.160;10.812;2022-11-15T08:41:46;94858.97;;;5.97;83.46
47750;BME280;49810;48.160;10.812;2022-11-15T08:44:34;94850.63;;;5.88;81.26
47750;BME280;49810;48.160;10.812;2022-11-15T08:47:21;94844.38;;;6.01;79.31
47750;BME280;49810;48.160;10.812;2022-11-15T08:50:08;94839.94;;;6.13;81.27
47750;BME280;49810;48.160;10.812;2022-11-15T08:52:55;94842.78;;;6.23;78.45
47750;BME280;49810;48.160;10.812;2022-11-15T08:55:41;94849.66;;;6.47;77.57
47750;BME280;49810;48.160;10.812;2022-11-15T08:58:28;94848.28;;;6.33;77.22
47750;BME280;49810;48.160;10.812;2022-11-15T09:01:19;94845.44;;;6.57;76.06
47750;BME280;49810;48.160;10.812;2022-11-15T09:04:06;94831.94;;;7.05;74.49
47750;BME280;49810;48.160;10.812;2022-11-15T09:06:53;94827.69;;;7.43;71.17
47750;BME280;49810;48.160;10.812;2022-11-15T09:09:40;94837.56;;;7.36;71.84
47750;BME280;49810;48.160;10.812;2022-11-15T09:12:27;94833.72;;;7.55;71.99
47750;BME280;49810;48.160;10.812;2022-11-15T09:15:15;94835.50;;;7.66;72.18
47750;BME280;49810;48.160;10.812;2022-11-15T09:18:06;94832.88;;;7.38;74.16
47750;BME280;49810;48.160;10.812;2022-11-15T09:20:55;94828.75;;;7.42;74.60
47750;BME280;49810;48.160;10.812;2022-11-15T09:23:43;94830.78;;;7.52;74.87
47750;BME280;49810;48.160;10.812;2022-11-15T09:26:31;94823.03;;;7.45;75.25
47750;BME280;49810;48.160;10.812;2022-11-15T09:29:17;94830.84;;;7.57;75.29
47750;BME280;49810;48.160;10.812;2022-11-15T09:32:05;94828.41;;;7.83;73.64
47750;BME280;49810;48.160;10.812;2022-11-15T09:34:53;94832.38;;;7.69;73.38
47750;BME280;49810;48.160;10.812;2022-11-15T09:37:40;94830.88;;;7.73;73.29
47750;BME280;49810;48.160;10.812;2022-11-15T09:40:27;94822.31;;;8.11;71.43
47750;BME280;49810;48.160;10.812;2022-11-15T09:43:27;94819.50;;;7.84;73.01
47750;BME280;49810;48.160;10.812;2022-11-15T09:46:21;94811.31;;;8.14;72.68
47750;BME280;49810;48.160;10.812;2022-11-15T09:49:14;94797.91;;;8.32;72.07
47750;BME280;49810;48.160;10.812;2022-11-15T09:51:56;94790.78;;;8.32;71.93
47750;BME280;49810;48.160;10.812;2022-11-15T09:54:30;94786.31;;;8.16;71.85
47750;BME280;49810;48.160;10.812;2022-11-15T09:57:21;94781.47;;;8.25;71.12
47750;BME280;49810;48.160;10.812;2022-11-15T10:00:00;94781.22;;;8.26;71.04
47750;BME280;49810;48.160;10.812;2022-11-15T10:03:09;94773.28;;;8.43;70.73
47750;BME280;49810;48.160;10.812;2022-11-15T10:05:40;94761.59;;;8.55;70.23
47750;BME280;49810;48.160;10.812;2022-11-15T10:08:30;94754.16;;;8.69;69.06
47750;BME280;49810;48.160;10.812;2022-11-15T10:11:01;94741.81;;;8.96;69.38
47750;BME280;49810;48.160;10.812;2022-11-15T10:13:51;94737.19;;;9.08;67.63
47750;BME280;49810;48.160;10.812;2022-11-15T10:16:38;94737.56;;;9.16;67.69
47750;BME280;49810;48.160;10.812;2022-11-15T10:19:17;94731.94;;;9.34;67.07
47750;BME280;49810;48.160;10.812;2022-11-15T10:21:59;94727.03;;;9.48;66.62
47750;BME280;49810;48.160;10.812;2022-11-15T10:24:37;94719.25;;;9.31;67.26
47750;BME280;49810;48.160;10.812;2022-11-15T10:27:11;94716.50;;;9.21;67.40
47750;BME280;49810;48.160;10.812;2022-11-15T10:29:43;94708.56;;;9.48;66.98
47750;BME280;49810;48.160;10.812;2022-11-15T10:32:13;94706.06;;;9.63;66.42
47750;BME280;49810;48.160;10.812;2022-11-15T10:34:41;94697.88;;;9.64;66.68
47750;BME280;49810;48.160;10.812;2022-11-15T10:37:10;94695.59;;;9.73;65.85
47750;BME280;49810;48.160;10.812;2022-11-15T10:39:39;94687.44;;;10.16;64.98
47750;BME280;49810;48.160;10.812;2022-11-15T10:42:25;94682.81;;;10.33;63.86
47750;BME280;49810;48.160;10.812;2022-11-15T10:44:54;94680.22;;;10.48;63.06
47750;BME280;49810;48.160;10.812;2022-11-15T10:47:25;94680.59;;;10.71;62.37
47750;BME280;49810;48.160;10.812;2022-11-15T10:49:59;94675.06;;;10.78;62.07
47750;BME280;49810;48.160;10.812;2022-11-15T10:52:28;94675.97;;;10.42;62.76
47750;BME280;49810;48.160;10.812;2022-11-15T10:55:03;94670.69;;;10.42;63.86
47750;BME280;49810;48.160;10.812;2022-11-15T10:57:36;94674.09;;;10.42;63.04
47750;BME280;49810;48.160;10.812;2022-11-15T11:00:07;94667.94;;;10.22;63.34
47750;BME280;49810;48.160;10.812;2022-11-15T11:02:58;94667.34;;;10.66;63.08
47750;BME280;49810;48.160;10.812;2022-11-15T11:05:29;94663.75;;;11.02;62.02
47750;BME280;49810;48.160;10.812;2022-11-15T11:08:20;94657.94;;;11.05;62.48
47750;BME280;49810;48.160;10.812;2022-11-15T11:10:53;94654.50;;;11.05;63.22
47750;BME280;49810;48.160;10.812;2022-11-15T11:13:30;94650.56;;;11.32;63.67
47750;BME280;49810;48.160;10.812;2022-11-15T11:16:14;94645.84;;;11.85;62.91
47750;BME280;49810;48.160;10.812;2022-11-15T11:18:51;94638.69;;;11.70;61.98
47750;BME280;49810;48.160;10.812;2022-11-15T11:21:26;94637.88;;;11.45;62.44
47750;BME280;49810;48.160;10.812;2022-11-15T11:24:10;94641.88;;;11.77;62.26
47750;BME280;49810;48.160;10.812;2022-11-15T11:26:48;94632.59;;;11.85;63.23
47750;BME280;49810;48.160;10.812;2022-11-15T11:29:36;94628.09;;;11.55;64.77
47750;BME280;49810;48.160;10.812;2022-11-15T11:32:26;94634.09;;;10.90;66.44
47750;BME280;49810;48.160;10.812;2022-11-15T11:35:00;94623.63;;;11.61;64.92
47750;BME280;49810;48.160;10.812;2022-11-15T11:37:38;94625.16;;;11.12;65.50
47750;BME280;49810;48.160;10.812;2022-11-15T11:40:16;94619.38;;;11.75;64.59
47750;BME280;49810;48.160;10.812;2022-11-15T11:42:54;94619.81;;;12.12;63.71
47750;BME280;49810;48.160;10.812;2022-11-15T11:48:40;94614.13;;;15.15;53.59
47750;BME280;49810;48.160;10.812;2022-11-15T11:51:14;94597.97;;;15.62;51.59
47750;BME280;49810;48.160;10.812;2022-11-15T11:53:50;94596.13;;;16.21;50.28
47750;BME280;49810;48.160;10.812;2022-11-15T11:56:27;94605.59;;;13.77;55.75
47750;BME280;49810;48.160;10.812;2022-11-15T11:59:02;94599.06;;;15.42;52.06
47750;BME280;49810;48.160;10.812;2022-11-15T12:01:39;94584.28;;;15.82;50.64
47750;BME280;49810;48.160;10.812;2022-11-15T12:04:16;94600.31;;;14.94;53.59
47750;BME280;49810;48.160;10.812;2022-11-15T12:06:50;94593.13;;;16.23;49.57
47750;BME280;49810;48.160;10.812;2022-11-15T12:09:22;94578.88;;;17.44;46.14
47750;BME280;49810;48.160;10.812;2022-11-15T12:11:55;94588.50;;;16.15;49.36
47750;BME280;49810;48.160;10.812;2022-11-15T12:14:33;94585.56;;;16.30;48.89
47750;BME280;49810;48.160;10.812;2022-11-15T12:17:03;94584.22;;;17.88;45.36
47750;BME280;49810;48.160;10.812;2022-11-15T12:19:31;94583.88;;;17.23;46.34
47750;BME280;49810;48.160;10.812;2022-11-15T12:22:03;94590.00;;;17.81;44.09
47750;BME280;49810;48.160;10.812;2022-11-15T12:24:37;94581.13;;;17.94;44.24
47750;BME280;49810;48.160;10.812;2022-11-15T12:27:31;94576.81;;;19.02;41.71
47750;BME280;49810;48.160;10.812;2022-11-15T12:30:07;94579.97;;;18.17;43.42
47750;BME280;49810;48.160;10.812;2022-11-15T12:32:39;94577.59;;;18.16;42.16
47750;BME280;49810;48.160;10.812;2022-11-15T12:35:25;94575.38;;;19.98;38.34
47750;BME280;49810;48.160;10.812;2022-11-15T12:37:55;94574.97;;;19.53;39.83
47750;BME280;49810;48.160;10.812;2022-11-15T12:40:29;94584.00;;;17.18;45.13
47750;BME280;49810;48.160;10.812;2022-11-15T12:43:32;94574.59;;;19.98;39.05
47750;BME280;49810;48.160;10.812;2022-11-15T12:46:04;94569.25;;;20.81;37.40
47750;BME280;49810;48.160;10.812;2022-11-15T12:48:51;94570.59;;;20.96;35.68
47750;BME280;49810;48.160;10.812;2022-11-15T12:51:21;94568.84;;;21.00;36.15
47750;BME280;49810;48.160;10.812;2022-11-15T12:53:50;94585.06;;;19.22;39.13
47750;BME280;49810;48.160;10.812;2022-11-15T12:56:22;94580.84;;;18.74;41.02
47750;BME280;49810;48.160;10.812;2022-11-15T12:58:56;94570.53;;;20.38;37.99
47750;BME280;49810;48.160;10.812;2022-11-15T13:01:54;94585.16;;;18.44;40.89
47750;BME280;49810;48.160;10.812;2022-11-15T13:04:25;94581.69;;;19.17;40.04
47750;BME280;49810;48.160;10.812;2022-11-15T13:06:57;94582.53;;;19.34;37.77
47750;BME280;49810;48.160;10.812;2022-11-15T13:09:55;94574.53;;;20.98;36.63
47750;BME280;49810;48.160;10.812;2022-11-15T13:12:52;94580.50;;;20.75;38.28
47750;BME280;49810;48.160;10.812;2022-11-15T13:15:56;94581.13;;;20.43;36.84
47750;BME280;49810;48.160;10.812;2022-11-15T13:18:36;94568.72;;;21.17;35.87
47750;BME280;49810;48.160;10.812;2022-11-15T13:21:19;94574.00;;;21.34;35.03
47750;BME280;49810;48.160;10.812;2022-11-15T13:24:13;94577.16;;;22.21;33.20
47750;BME280;49810;48.160;10.812;2022-11-15T13:26:42;94577.97;;;22.22;33.52
47750;BME280;49810;48.160;10.812;2022-11-15T13:29:16;94576.66;;;20.09;36.56
47750;BME280;49810;48.160;10.812;2022-11-15T13:31:44;94582.53;;;19.60;39.26
47750;BME280;49810;48.160;10.812;2022-11-15T13:34:24;94586.75;;;18.23;41.60
47750;BME280;49810;48.160;10.812;2022-11-15T13:37:28;94585.72;;;18.72;40.59
47750;BME280;49810;48.160;10.812;2022-11-15T13:40:15;94585.53;;;17.77;42.67
47750;BME280;49810;48.160;10.812;2022-11-15T13:42:46;94579.94;;;18.09;42.33
47750;BME280;49810;48.160;10.812;2022-11-15T13:45:17;94584.09;;;18.23;42.15
47750;BME280;49810;48.160;10.812;2022-11-15T13:47:52;94584.00;;;17.18;44.78
47750;BME280;49810;48.160;10.812;2022-11-15T13:50:25;94586.75;;;16.64;47.47
47750;BME280;49810;48.160;10.812;2022-11-15T13:52:57;94576.44;;;17.20;46.16
47750;BME280;49810;48.160;10.812;2022-11-15T13:55:26;94578.78;;;17.00;47.22
47750;BME280;49810;48.160;10.812;2022-11-15T13:57:57;94582.59;;;16.45;49.10
47750;BME280;49810;48.160;10.812;2022-11-15T14:00:33;94587.88;;;15.59;50.29
47750;BME280;49810;48.160;10.812;2022-11-15T14:03:11;94587.84;;;15.77;51.18
47750;BME280;49810;48.160;10.812;2022-11-15T14:05:44;94580.44;;;15.05;53.01
47750;BME280;49810;48.160;10.812;2022-11-15T14:08:23;94589.41;;;14.91;53.32
47750;BME280;49810;48.160;10.812;2022-11-15T14:11:06;94580.03;;;14.56;53.95
47750;BME280;49810;48.160;10.812;2022-11-15T14:13:35;94588.75;;;14.15;55.83
47750;BME280;49810;48.160;10.812;2022-11-15T14:16:14;94591.06;;;13.98;55.57
47750;BME280;49810;48.160;10.812;2022-11-15T14:18:45;94587.53;;;13.79;53.39
47750;BME280;49810;48.160;10.812;2022-11-15T14:21:17;94585.94;;;13.49;54.72
47750;BME280;49810;48.160;10.812;2022-11-15T14:23:45;94588.78;;;13.24;54.57
47750;BME280;49810;48.160;10.812;2022-11-15T14:26:31;94577.78;;;13.02;55.62
47750;BME280;49810;48.160;10.812;2022-11-15T14:29:24;94578.16;;;12.81;56.07
47750;BME280;49810;48.160;10.812;2022-11-15T14:31:52;94575.56;;;12.71;56.63
47750;BME280;49810;48.160;10.812;2022-11-15T14:34:21;94576.13;;;12.63;56.94
47750;BME280;49810;48.160;10.812;2022-11-15T14:36:51;94567.66;;;12.56;57.84
47750;BME280;49810;48.160;10.812;2022-11-15T14:39:19;94568.75;;;12.55;56.93
47750;BME280;49810;48.160;10.812;2022-11-15T14:41:48;94569.88;;;12.44;58.42